»·PEaware :: N664NT KEWR-KJFK

N664NT :: KEWR-KJFK

FLIGHT INFORMATION

Flight Status: Arrived
Operator: Privately registered:
United States
More flights under this callsign
Pilot: Anonymous 328 (328)
Aircraft: Unknown
(GA7C)
More flights by this aircraft type
Origin: KEWR Newark Intl
United States
Destination: KJFK Kennedy Intl
United States
More flights between these airports :: More routes between these airports
Route: BREZY V39 CMK V419 JUDDS NELIE MAD V1 DPK
File this flight plan on PilotEdge
Remarks:
Altitude:
(Current/Filed)
11,000ft
Speed:
(Current/Filed)
0kts
Departed: 31-Aug-22 06:27 AM
Arrived: 31-Aug-22 07:17 AM
Distance/Time
Traveled:
19nm/0:50
Distance/Time
To Go:
Arrived

Flight Plot

Page will automatically refresh every two minutes.

Flight plan parsing failed; only flown route is shown


Map Options




Map Legend


Flown Route
Filed Route
Departure Airport
Arrival Airport
Navaid (VOR, NDB)
Fix

Horizontal Profiles

Position Reports

Time Latitude Longitude Heading Altitude Ground
Speed
31-Aug-22 06:15 40.697136 -74.162994 355 19ft 13kts
31-Aug-22 06:16 40.697269 -74.163918 206 19ft 8kts
31-Aug-22 06:17 40.694878 -74.165443 205 19ft 15kts
31-Aug-22 06:18 40.690582 -74.168175 205 19ft 17kts
31-Aug-22 06:19 40.686085 -74.171028 205 19ft 18kts
31-Aug-22 06:20 40.675644 -74.177681 206 19ft 10kts
31-Aug-22 06:21 40.675121 -74.178185 280 19ft 0kts
31-Aug-22 06:22 40.675121 -74.178185 280 19ft 0kts
31-Aug-22 06:23 40.675121 -74.178185 280 19ft 0kts
31-Aug-22 06:24 40.675121 -74.178185 280 19ft 0kts
31-Aug-22 06:25 40.675121 -74.178185 280 19ft 0kts
31-Aug-22 06:26 40.676407 -74.178795 26 19ft 46kts
31-Aug-22 06:27 40.718304 -74.136971 46 2326ft 256kts
31-Aug-22 06:28 40.772655 -74.074059 11 5115ft 267kts
31-Aug-22 06:29 40.820503 -74.132217 275 6009ft 271kts
31-Aug-22 06:30 40.829201 -74.231667 276 6001ft 272kts
31-Aug-22 06:31 40.840660 -74.330811 298 6864ft 276kts
31-Aug-22 06:32 40.907852 -74.342026 32 10207ft 290kts
31-Aug-22 06:33 40.992332 -74.271149 31 11006ft 394kts
31-Aug-22 06:34 41.085819 -74.194435 31 11005ft 395kts
31-Aug-22 06:35 41.169746 -74.103256 59 11004ft 395kts
31-Aug-22 06:36 41.202435 -73.963860 74 11008ft 395kts
31-Aug-22 06:37 41.231400 -73.822639 74 11004ft 395kts
31-Aug-22 06:38 41.259949 -73.681709 74 11005ft 395kts
31-Aug-22 06:39 41.304134 -73.549789 46 11009ft 395kts
31-Aug-22 06:40 41.381809 -73.446114 45 10992ft 390kts
31-Aug-22 06:41 41.447834 -73.357948 44 10953ft 301kts
31-Aug-22 06:42 41.508114 -73.282196 43 11003ft 294kts
31-Aug-22 06:43 41.566456 -73.205437 47 10973ft 294kts
31-Aug-22 06:44 41.624893 -73.129326 46 10995ft 291kts
31-Aug-22 06:45 41.680111 -73.050316 44 10911ft 295kts
31-Aug-22 06:46 41.741367 -72.963699 46 11012ft 386kts
31-Aug-22 06:47 41.807491 -72.862984 65 8772ft 310kts
31-Aug-22 06:48 41.862347 -72.795952 23 5931ft 270kts
31-Aug-22 06:49 41.917435 -72.731468 48 3344ft 260kts
31-Aug-22 06:50 41.937885 -72.645020 118 2000ft 258kts
31-Aug-22 06:51 41.886868 -72.600609 235 1980ft 258kts
31-Aug-22 06:52 41.837391 -72.669754 219 2000ft 258kts
31-Aug-22 06:53 41.781620 -72.730095 223 2002ft 257kts
31-Aug-22 06:54 41.729973 -72.796516 223 2000ft 257kts
31-Aug-22 06:55 41.675617 -72.868217 223 4480ft 309kts
31-Aug-22 06:56 41.616180 -72.944733 225 6517ft 298kts
31-Aug-22 06:57 41.560017 -73.017578 215 9406ft 283kts
31-Aug-22 06:58 41.476025 -73.025810 179 11009ft 317kts
31-Aug-22 06:59 41.391014 -73.054092 198 10986ft 316kts
31-Aug-22 07:00 41.312698 -73.084114 194 10992ft 263kts
31-Aug-22 07:01 41.242966 -73.112221 196 11011ft 287kts
31-Aug-22 07:02 41.165169 -73.145264 197 11007ft 293kts
31-Aug-22 07:03 41.087933 -73.178162 197 9881ft 288kts
31-Aug-22 07:04 41.014309 -73.209442 197 8223ft 270kts
31-Aug-22 07:05 40.943527 -73.239517 197 6388ft 263kts
31-Aug-22 07:06 40.874580 -73.268692 197 4563ft 256kts
31-Aug-22 07:07 40.807472 -73.298233 210 3031ft 250kts
31-Aug-22 07:08 40.784420 -73.380798 263 3002ft 250kts
31-Aug-22 07:09 40.776299 -73.466675 263 2998ft 223kts
31-Aug-22 07:10 40.769009 -73.542839 263 2999ft 197kts
31-Aug-22 07:11 40.762627 -73.609039 262 2840ft 169kts
31-Aug-22 07:12 40.737465 -73.655975 216 2257ft 163kts
31-Aug-22 07:13 40.703781 -73.693146 218 1585ft 156kts
31-Aug-22 07:14 40.672279 -73.732964 217 622ft 154kts
31-Aug-22 07:15 40.636765 -73.761581 209 20ft 116kts
31-Aug-22 07:16 40.632015 -73.765198 207 20ft 0kts
31-Aug-22 07:17 40.632015 -73.765198 208 20ft 0kts
31-Aug-22 07:18 40.632015 -73.765198 210 20ft 0kts
31-Aug-22 07:19 40.632019 -73.765198 211 20ft 0kts
31-Aug-22 07:20 40.632019 -73.765198 212 20ft 0kts

Navigation Log

Ident Type
Flight plan parsing failed, navigation log unavailable